createdAt,value
2018-06-09T00:01:31.598Z,20.24
2018-06-09T00:02:31.654Z,20.19
2018-06-09T00:04:24.649Z,20.13
2018-06-09T00:05:24.764Z,20.13
2018-06-09T00:07:17.714Z,20.21
2018-06-09T00:08:17.773Z,20.24
2018-06-09T00:10:10.785Z,20.22
2018-06-09T00:11:10.832Z,20.26
2018-06-09T00:13:03.827Z,20.16
2018-06-09T00:14:03.893Z,20.21
2018-06-09T00:15:56.894Z,20.09
2018-06-09T00:16:56.954Z,20.25
2018-06-09T00:18:49.948Z,20.22
2018-06-09T00:19:50.015Z,20.21
2018-06-09T00:21:43.019Z,20.22
2018-06-09T00:22:43.072Z,20.22
2018-06-09T00:24:36.069Z,20.25
2018-06-09T00:25:36.135Z,20.24
2018-06-09T00:27:29.137Z,20.18
2018-06-09T00:28:29.193Z,20.25
2018-06-09T00:30:22.187Z,20.25
2018-06-09T00:31:22.257Z,20.21
2018-06-09T00:33:15.252Z,20.22
2018-06-09T00:34:15.313Z,20.25
2018-06-09T00:36:08.321Z,20.31
2018-06-09T00:37:08.377Z,20.24
2018-06-09T00:39:01.377Z,20.28
2018-06-09T00:40:01.451Z,20.24
2018-06-09T00:41:54.442Z,20.24
2018-06-09T00:42:54.499Z,20.29
2018-06-09T00:44:47.493Z,20.26
2018-06-09T00:45:47.562Z,20.26
2018-06-09T00:47:40.560Z,20.18
2018-06-09T00:48:40.616Z,20.24
2018-06-09T00:50:33.612Z,20.21
2018-06-09T00:51:33.677Z,20.24
2018-06-09T00:53:26.679Z,20.13
2018-06-09T00:54:26.736Z,20.11
2018-06-09T00:56:19.745Z,20.16
2018-06-09T00:57:19.799Z,20.10
2018-06-09T00:59:12.797Z,20.21
2018-06-09T01:00:12.856Z,20.09
2018-06-09T01:02:05.859Z,20.04
2018-06-09T01:03:05.934Z,20.09
2018-06-09T01:04:58.910Z,20.04
2018-06-09T01:05:58.979Z,20.09
2018-06-09T01:07:51.980Z,20.16
2018-06-09T01:08:52.039Z,20.09
2018-06-09T01:10:45.041Z,20.10
2018-06-09T01:11:45.105Z,20.07
2018-06-09T01:13:38.109Z,20.09
2018-06-09T01:14:38.164Z,20.18
2018-06-09T01:16:31.156Z,20.09
2018-06-09T01:17:31.223Z,20.16
2018-06-09T01:19:24.224Z,20.24
2018-06-09T01:20:24.281Z,20.14
2018-06-09T01:22:17.283Z,20.21
2018-06-09T01:23:17.341Z,20.21
2018-06-09T01:25:10.335Z,20.25
2018-06-09T01:26:10.401Z,20.16
2018-06-09T01:28:03.401Z,20.22
2018-06-09T01:29:03.462Z,20.16
2018-06-09T01:30:56.456Z,20.21
2018-06-09T01:31:56.519Z,20.25
2018-06-09T01:33:49.522Z,20.19
2018-06-09T01:34:49.579Z,20.19
2018-06-09T01:36:42.575Z,20.14
2018-06-09T01:37:42.643Z,20.21
2018-06-09T01:39:35.640Z,20.09
2018-06-09T01:40:35.697Z,20.21
2018-06-09T01:42:28.691Z,20.18
2018-06-09T01:43:28.756Z,20.07
2018-06-09T01:45:21.757Z,20.06
2018-06-09T01:46:21.830Z,20.03
2018-06-09T01:48:14.817Z,20.04
2018-06-09T01:49:14.873Z,20.11
2018-06-09T01:51:07.868Z,20.11
2018-06-09T01:52:07.933Z,20.07
2018-06-09T01:54:00.933Z,20.09
2018-06-09T01:55:00.994Z,20.04
2018-06-09T01:56:53.988Z,20.06
2018-06-09T01:57:54.052Z,20.04
2018-06-09T01:59:47.053Z,20.02
2018-06-09T02:00:47.112Z,20.02
2018-06-09T02:02:40.106Z,20.03
2018-06-09T02:03:40.172Z,20.04
2018-06-09T02:05:33.172Z,20.02
2018-06-09T02:06:33.228Z,19.99
2018-06-09T02:08:26.229Z,20.00
2018-06-09T02:09:26.296Z,19.88
2018-06-09T02:11:19.279Z,19.99
2018-06-09T02:12:19.345Z,19.94
2018-06-09T02:14:12.345Z,19.86
2018-06-09T02:15:12.405Z,19.86
2018-06-09T02:17:05.397Z,19.86
2018-06-09T02:18:05.463Z,19.91
2018-06-09T02:19:58.467Z,19.89
2018-06-09T02:20:58.525Z,19.94
2018-06-09T02:22:51.521Z,20.00
2018-06-09T02:23:51.592Z,19.85
2018-06-09T02:25:44.585Z,19.91
2018-06-09T02:26:44.642Z,19.79
2018-06-09T02:28:37.643Z,19.92
2018-06-09T02:29:37.700Z,19.85
2018-06-09T02:31:30.696Z,19.81
2018-06-09T02:32:30.761Z,19.88
2018-06-09T02:34:23.768Z,19.77
2018-06-09T02:35:23.823Z,19.82
2018-06-09T02:37:16.817Z,19.73
2018-06-09T02:38:16.884Z,19.70
2018-06-09T02:40:09.885Z,19.71
2018-06-09T02:41:09.943Z,19.76
2018-06-09T02:43:02.941Z,19.71
2018-06-09T02:44:03.002Z,19.66
2018-06-09T02:45:56.518Z,19.71
2018-06-09T02:46:56.573Z,19.66
2018-06-09T02:48:49.576Z,19.66
2018-06-09T02:49:49.636Z,19.64
2018-06-09T02:51:42.638Z,19.58
2018-06-09T02:52:42.700Z,19.64
2018-06-09T02:54:35.693Z,19.62
2018-06-09T02:55:35.752Z,19.59
2018-06-09T02:57:28.747Z,19.59
2018-06-09T02:58:28.810Z,19.51
2018-06-09T03:00:21.812Z,19.51
2018-06-09T03:01:21.869Z,19.56
2018-06-09T03:03:14.871Z,19.62
2018-06-09T03:04:14.931Z,19.55
2018-06-09T03:06:07.931Z,19.49
2018-06-09T03:07:07.995Z,19.59
2018-06-09T03:09:00.987Z,19.54
2018-06-09T03:10:01.049Z,19.51
2018-06-09T03:11:54.052Z,19.41
2018-06-09T03:12:54.111Z,19.51
2018-06-09T03:14:47.113Z,19.44
2018-06-09T03:15:47.172Z,19.58
2018-06-09T03:17:40.167Z,19.56
2018-06-09T03:18:40.231Z,19.37
2018-06-09T03:20:33.238Z,19.45
2018-06-09T03:21:33.297Z,19.48
2018-06-09T03:23:26.314Z,19.39
2018-06-09T03:24:26.356Z,19.40
2018-06-09T03:26:19.358Z,19.47
2018-06-09T03:27:19.414Z,19.41
2018-06-09T03:29:12.437Z,19.40
2018-06-09T03:30:12.502Z,19.40
2018-06-09T03:32:05.503Z,19.30
2018-06-09T03:33:05.559Z,19.33
2018-06-09T03:34:58.553Z,19.39
2018-06-09T03:35:58.617Z,19.33
2018-06-09T03:37:51.616Z,19.34
2018-06-09T03:38:51.675Z,19.30
2018-06-09T03:40:44.677Z,19.36
2018-06-09T03:41:44.732Z,19.39
2018-06-09T03:43:37.726Z,19.39
2018-06-09T03:44:37.789Z,19.29
2018-06-09T03:46:31.300Z,19.34
2018-06-09T03:47:31.356Z,19.36
2018-06-09T03:49:24.348Z,19.31
2018-06-09T03:50:24.412Z,19.34
2018-06-09T03:52:17.417Z,19.36
2018-06-09T03:53:17.473Z,19.37
2018-06-09T03:55:10.469Z,19.30
2018-06-09T03:56:10.531Z,19.36
2018-06-09T03:58:03.531Z,19.31
2018-06-09T03:59:03.588Z,19.30
2018-06-09T04:00:56.590Z,19.31
2018-06-09T04:01:56.645Z,19.29
2018-06-09T04:03:49.636Z,19.22
2018-06-09T04:04:49.704Z,19.26
2018-06-09T04:06:42.703Z,19.26
2018-06-09T04:07:42.758Z,19.26
2018-06-09T04:09:35.759Z,19.26
2018-06-09T04:10:35.822Z,19.22
2018-06-09T04:12:28.823Z,19.27
2018-06-09T04:13:28.882Z,19.31
2018-06-09T04:15:21.875Z,19.22
2018-06-09T04:16:21.939Z,19.21
2018-06-09T04:18:14.947Z,19.26
2018-06-09T04:19:15.007Z,19.26
2018-06-09T04:21:08.000Z,19.19
2018-06-09T04:22:08.067Z,19.24
2018-06-09T04:24:01.069Z,19.26
2018-06-09T04:25:01.130Z,19.31
2018-06-09T04:26:54.131Z,19.19
2018-06-09T04:27:54.190Z,19.19
2018-06-09T04:29:47.195Z,19.19
2018-06-09T04:30:47.255Z,19.19
2018-06-09T04:32:40.254Z,19.19
2018-06-09T04:33:40.310Z,19.21
2018-06-09T04:35:33.302Z,19.27
2018-06-09T04:36:33.367Z,19.30
2018-06-09T04:38:26.369Z,19.27
2018-06-09T04:39:26.424Z,19.37
2018-06-09T04:41:19.419Z,19.34
2018-06-09T04:42:19.484Z,19.34
2018-06-09T04:44:12.483Z,19.44
2018-06-09T04:45:12.541Z,19.48
2018-06-09T04:47:06.055Z,19.51
2018-06-09T04:48:06.110Z,19.49
2018-06-09T04:49:59.107Z,19.55
2018-06-09T04:50:59.164Z,19.76
2018-06-09T04:52:52.165Z,19.76
2018-06-09T04:53:52.225Z,19.73
2018-06-09T04:55:45.219Z,19.79
2018-06-09T04:56:45.284Z,19.79
2018-06-09T04:58:38.286Z,19.85
2018-06-09T04:59:38.342Z,19.85
2018-06-09T05:01:31.340Z,19.88
2018-06-09T05:02:31.408Z,19.85
2018-06-09T05:04:24.405Z,19.91
2018-06-09T05:05:24.463Z,19.94
2018-06-09T05:07:17.476Z,19.84
2018-06-09T05:08:17.522Z,19.99
2018-06-09T05:10:10.526Z,20.04
2018-06-09T05:11:10.586Z,20.21
2018-06-09T05:13:03.649Z,20.31
2018-06-09T05:14:03.649Z,20.29
2018-06-09T05:15:56.640Z,20.39
2018-06-09T05:16:56.705Z,20.48
2018-06-09T05:18:49.712Z,20.52
2018-06-09T05:19:49.767Z,20.60
2018-06-09T05:21:42.767Z,20.58
2018-06-09T05:22:42.825Z,20.65
2018-06-09T05:24:35.818Z,20.66
2018-06-09T05:25:35.884Z,20.65
2018-06-09T05:27:28.890Z,20.75
2018-06-09T05:28:28.949Z,20.74
2018-06-09T05:30:21.948Z,20.72
2018-06-09T05:31:22.006Z,20.95
2018-06-09T05:33:15.003Z,20.85
2018-06-09T05:34:15.070Z,20.80
2018-06-09T05:36:08.074Z,20.81
2018-06-09T05:37:08.131Z,20.90
2018-06-09T05:39:01.129Z,21.00
2018-06-09T05:40:01.195Z,20.95
2018-06-09T05:41:54.197Z,20.99
2018-06-09T05:42:54.257Z,21.02
2018-06-09T05:44:47.252Z,21.24
2018-06-09T05:45:47.319Z,21.25
2018-06-09T05:47:40.320Z,21.21
2018-06-09T05:48:40.379Z,21.20
2018-06-09T05:50:33.382Z,21.20
2018-06-09T05:51:33.451Z,21.15
2018-06-09T05:53:26.439Z,21.18
2018-06-09T05:54:26.501Z,21.20
2018-06-09T05:56:19.507Z,21.20
2018-06-09T05:57:19.563Z,21.07
2018-06-09T05:59:13.066Z,20.97
2018-06-09T06:00:13.133Z,21.02
2018-06-09T06:02:06.135Z,20.99
2018-06-09T06:03:06.233Z,20.99
2018-06-09T06:04:59.198Z,20.99
2018-06-09T06:05:59.260Z,21.02
2018-06-09T06:07:52.266Z,21.00
2018-06-09T06:08:52.324Z,20.99
2018-06-09T06:10:45.330Z,20.92
2018-06-09T06:11:45.396Z,21.05
2018-06-09T06:13:38.393Z,21.07
2018-06-09T06:14:38.457Z,21.15
2018-06-09T06:16:31.462Z,21.22
2018-06-09T06:17:31.522Z,21.20
2018-06-09T06:19:24.530Z,21.37
2018-06-09T06:20:24.596Z,21.32
2018-06-09T06:22:17.593Z,21.39
2018-06-09T06:23:17.651Z,21.42
2018-06-09T06:25:10.649Z,21.45
2018-06-09T06:26:10.714Z,21.50
2018-06-09T06:28:03.719Z,21.48
2018-06-09T06:29:03.778Z,21.40
2018-06-09T06:30:56.783Z,21.39
2018-06-09T06:31:56.875Z,21.25
2018-06-09T06:33:49.838Z,21.37
2018-06-09T06:34:49.904Z,21.35
2018-06-09T06:36:42.907Z,21.45
2018-06-09T06:37:42.968Z,21.42
2018-06-09T06:39:35.979Z,21.42
2018-06-09T06:40:36.042Z,21.43
2018-06-09T06:42:29.050Z,21.39
2018-06-09T06:43:29.109Z,21.43
2018-06-09T06:45:22.118Z,21.45
2018-06-09T06:46:22.182Z,21.40
2018-06-09T06:48:15.188Z,21.37
2018-06-09T06:49:15.248Z,21.50
2018-06-09T06:51:08.251Z,21.43
2018-06-09T06:52:08.313Z,21.39
2018-06-09T06:54:01.313Z,21.52
2018-06-09T06:55:01.376Z,21.61
2018-06-09T06:56:54.383Z,21.60
2018-06-09T06:57:54.440Z,21.61
2018-06-09T06:59:47.439Z,21.61
2018-06-09T07:00:47.505Z,21.64
2018-06-09T07:02:40.518Z,21.70
2018-06-09T07:03:40.576Z,21.77
2018-06-09T07:05:33.572Z,21.77
2018-06-09T07:06:33.641Z,21.82
2018-06-09T07:08:26.644Z,21.99
2018-06-09T07:09:26.707Z,22.06
2018-06-09T07:11:19.726Z,22.11
2018-06-09T07:12:19.782Z,22.18
2018-06-09T07:14:12.786Z,22.23
2018-06-09T07:15:12.852Z,22.23
2018-06-09T07:17:05.856Z,22.51
2018-06-09T07:18:05.921Z,22.63
2018-06-09T07:19:58.908Z,22.88
2018-06-09T07:20:58.984Z,22.96
2018-06-09T07:22:51.997Z,23.00
2018-06-09T07:23:52.059Z,23.03
2018-06-09T07:25:45.057Z,23.34
2018-06-09T07:26:45.198Z,23.24
2018-06-09T07:28:38.125Z,23.41
2018-06-09T07:29:38.194Z,23.58
2018-06-09T07:31:31.206Z,23.76
2018-06-09T07:32:31.259Z,23.93
2018-06-09T07:34:24.261Z,24.29
2018-06-09T07:35:24.324Z,24.47
2018-06-09T07:37:17.331Z,24.76
2018-06-09T07:38:17.397Z,24.86
2018-06-09T07:40:10.393Z,24.89
2018-06-09T07:41:10.462Z,25.14
2018-06-09T07:43:03.469Z,25.96
2018-06-09T07:44:03.532Z,26.51
2018-06-09T07:45:56.538Z,27.78
2018-06-09T07:46:56.601Z,28.26
2018-06-09T07:48:49.615Z,29.27
2018-06-09T07:49:49.680Z,29.93
2018-06-09T07:51:42.693Z,30.37
2018-06-09T07:52:42.756Z,30.57
2018-06-09T07:54:35.773Z,30.97
2018-06-09T07:55:35.836Z,31.58
2018-06-09T07:57:28.853Z,32.18
2018-06-09T07:58:28.919Z,31.61
2018-06-09T08:00:21.930Z,32.49
2018-06-09T08:01:22.001Z,33.00
2018-06-09T08:03:15.023Z,33.69
2018-06-09T08:04:15.090Z,33.81
2018-06-09T08:06:08.105Z,34.27
2018-06-09T08:07:08.179Z,34.43
2018-06-09T08:09:01.207Z,34.48
2018-06-09T08:10:01.292Z,34.74
2018-06-09T08:11:54.300Z,35.17
2018-06-09T08:12:54.389Z,35.36
2018-06-09T08:14:47.399Z,33.89
2018-06-09T08:15:47.469Z,32.55
2018-06-09T08:17:40.514Z,31.12
2018-06-09T08:18:40.571Z,30.66
2018-06-09T08:20:33.587Z,29.87
2018-06-09T08:21:33.663Z,29.31
2018-06-09T08:23:26.683Z,28.82
2018-06-09T08:24:26.755Z,28.78
2018-06-09T08:26:19.768Z,28.42
2018-06-09T08:27:19.840Z,28.39
2018-06-09T08:29:12.863Z,28.04
2018-06-09T08:30:12.928Z,27.96
2018-06-09T08:32:05.942Z,28.14
2018-06-09T08:33:06.015Z,28.25
2018-06-09T08:34:59.036Z,28.15
2018-06-09T08:35:59.145Z,28.22
2018-06-09T08:37:52.119Z,29.82
2018-06-09T08:38:52.184Z,29.68
2018-06-09T08:40:45.192Z,29.91
2018-06-09T08:41:45.265Z,30.35
2018-06-09T08:43:38.793Z,31.40
2018-06-09T08:44:38.859Z,32.36
2018-06-09T08:46:31.876Z,33.22
2018-06-09T08:47:31.949Z,33.32
2018-06-09T08:49:24.972Z,33.37
2018-06-09T08:50:25.039Z,33.36
2018-06-09T08:52:18.053Z,32.96
2018-06-09T08:53:18.132Z,33.04
2018-06-09T08:55:11.153Z,32.73
2018-06-09T08:56:11.219Z,32.60
2018-06-09T08:58:04.241Z,32.00
2018-06-09T08:59:04.310Z,32.29
2018-06-09T09:00:57.324Z,32.14
2018-06-09T09:01:57.399Z,31.73
2018-06-09T09:03:50.421Z,31.22
2018-06-09T09:04:50.490Z,30.99
2018-06-09T09:06:43.516Z,30.68
2018-06-09T09:07:43.598Z,30.54
2018-06-09T09:09:36.617Z,30.27
2018-06-09T09:10:36.683Z,30.31
2018-06-09T09:12:29.706Z,30.28
2018-06-09T09:13:29.776Z,30.28
2018-06-09T09:15:22.800Z,30.57
2018-06-09T09:16:22.878Z,30.65
2018-06-09T09:18:15.888Z,30.97
2018-06-09T09:19:15.956Z,32.08
2018-06-09T09:21:08.970Z,33.08
2018-06-09T09:22:09.046Z,33.24
2018-06-09T09:24:02.066Z,33.07
2018-06-09T09:25:02.138Z,32.45
2018-06-09T09:26:55.155Z,32.23
2018-06-09T09:27:55.231Z,31.89
2018-06-09T09:29:48.260Z,32.29
2018-06-09T09:30:48.329Z,32.67
2018-06-09T09:32:41.347Z,31.81
2018-06-09T09:33:41.421Z,31.54
2018-06-09T09:35:34.448Z,30.80
2018-06-09T09:36:34.515Z,30.40
2018-06-09T09:38:28.045Z,29.75
2018-06-09T09:39:28.110Z,29.54
2018-06-09T09:41:21.127Z,29.10
2018-06-09T09:42:21.202Z,28.97
2018-06-09T09:44:14.222Z,28.47
2018-06-09T09:45:14.288Z,28.27
2018-06-09T09:47:07.305Z,27.90
2018-06-09T09:48:07.381Z,27.73
2018-06-09T09:50:00.399Z,27.89
2018-06-09T09:51:00.477Z,27.77
2018-06-09T09:52:53.475Z,27.48
2018-06-09T09:53:53.544Z,27.47
2018-06-09T09:55:46.567Z,27.49
2018-06-09T09:56:46.627Z,27.65
2018-06-09T09:58:39.648Z,27.87
2018-06-09T09:59:39.719Z,28.05
2018-06-09T10:01:32.725Z,28.42
2018-06-09T10:02:32.797Z,28.60
2018-06-09T10:04:25.814Z,28.81
2018-06-09T10:05:25.879Z,28.78
2018-06-09T10:07:18.889Z,28.93
2018-06-09T10:08:18.961Z,29.08
2018-06-09T10:10:11.990Z,29.10
2018-06-09T10:11:12.054Z,29.08
2018-06-09T10:13:05.064Z,28.88
2018-06-09T10:14:05.134Z,28.96
2018-06-09T10:15:58.149Z,29.04
2018-06-09T10:16:58.216Z,29.14
2018-06-09T10:18:51.236Z,28.52
2018-06-09T10:19:51.301Z,28.05
2018-06-09T10:21:44.307Z,28.27
2018-06-09T10:22:44.385Z,28.52
2018-06-09T10:24:37.400Z,28.67
2018-06-09T10:25:37.466Z,28.89
2018-06-09T10:27:30.477Z,29.02
2018-06-09T10:28:30.549Z,28.93
2018-06-09T10:30:23.566Z,28.98
2018-06-09T10:31:23.631Z,28.89
2018-06-09T10:33:16.641Z,28.75
2018-06-09T10:34:16.717Z,28.84
2018-06-09T10:36:09.732Z,28.85
2018-06-09T10:37:09.802Z,28.70
2018-06-09T10:39:02.808Z,28.69
2018-06-09T10:40:02.874Z,28.51
2018-06-09T10:41:55.881Z,28.38
2018-06-09T10:42:55.952Z,28.47
2018-06-09T10:44:48.977Z,28.56
2018-06-09T10:45:49.042Z,28.35
2018-06-09T10:47:42.052Z,28.39
2018-06-09T10:48:42.122Z,28.44
2018-06-09T10:50:35.134Z,28.37
2018-06-09T10:51:35.203Z,28.32
2018-06-09T10:53:28.211Z,28.29
2018-06-09T10:54:28.281Z,28.52
2018-06-09T10:56:21.298Z,28.76
2018-06-09T10:57:21.362Z,28.84
2018-06-09T10:59:14.368Z,28.98
2018-06-09T11:00:14.439Z,29.13
2018-06-09T11:02:07.453Z,29.16
2018-06-09T11:03:07.520Z,29.16
2018-06-09T11:05:00.539Z,29.05
2018-06-09T11:06:00.604Z,28.94
2018-06-09T11:07:53.614Z,28.89
2018-06-09T11:08:53.700Z,28.75
2018-06-09T11:10:46.706Z,28.44
2018-06-09T11:11:46.769Z,28.42
2018-06-09T11:13:39.778Z,28.33
2018-06-09T11:14:39.847Z,28.30
2018-06-09T11:16:32.857Z,28.33
2018-06-09T11:17:32.923Z,28.29
2018-06-09T11:19:25.930Z,28.19
2018-06-09T11:20:26.007Z,28.11
2018-06-09T11:22:19.014Z,28.26
2018-06-09T11:23:19.078Z,28.41
2018-06-09T11:25:12.090Z,28.62
2018-06-09T11:26:12.157Z,28.64
2018-06-09T11:28:05.170Z,28.74
2018-06-09T11:29:05.234Z,28.72
2018-06-09T11:30:58.246Z,28.23
2018-06-09T11:31:58.310Z,28.12
2018-06-09T11:33:51.320Z,28.22
2018-06-09T11:34:51.396Z,28.32
2018-06-09T11:36:44.403Z,28.51
2018-06-09T11:37:44.469Z,28.59
2018-06-09T11:39:37.475Z,28.82
2018-06-09T11:40:37.547Z,29.01
2018-06-09T11:42:30.560Z,28.72
2018-06-09T11:43:30.622Z,28.54
2018-06-09T11:45:23.634Z,28.81
2018-06-09T11:46:23.698Z,28.82
2018-06-09T11:48:17.245Z,28.66
2018-06-09T11:49:17.314Z,28.79
2018-06-09T11:51:10.328Z,28.89
2018-06-09T11:52:10.394Z,28.85
2018-06-09T11:54:03.399Z,28.88
2018-06-09T11:55:03.468Z,28.66
2018-06-09T11:56:56.477Z,28.74
2018-06-09T11:57:56.544Z,28.63
2018-06-09T11:59:49.552Z,28.42
2018-06-09T12:00:49.628Z,28.47
2018-06-09T12:02:42.639Z,28.30
2018-06-09T12:03:42.703Z,28.23
2018-06-09T12:05:35.735Z,28.29
2018-06-09T12:06:35.783Z,28.32
2018-06-09T12:08:28.781Z,28.27
2018-06-09T12:09:28.854Z,28.26
2018-06-09T12:11:21.862Z,28.39
2018-06-09T12:12:21.928Z,28.44
2018-06-09T12:14:14.937Z,28.54
2018-06-09T12:15:15.001Z,28.63
2018-06-09T12:17:08.020Z,28.60
2018-06-09T12:18:08.079Z,28.62
2018-06-09T12:20:01.101Z,28.52
2018-06-09T12:21:01.173Z,28.69
2018-06-09T12:22:54.190Z,28.44
2018-06-09T12:23:54.254Z,28.59
2018-06-09T12:25:47.267Z,28.64
2018-06-09T12:26:47.332Z,28.66
2018-06-09T12:28:40.344Z,28.84
2018-06-09T12:29:40.410Z,28.72
2018-06-09T12:31:33.425Z,28.93
2018-06-09T12:32:33.547Z,28.89
2018-06-09T12:34:26.491Z,28.82
2018-06-09T12:35:26.561Z,28.75
2018-06-09T12:37:19.573Z,28.75
2018-06-09T12:38:19.634Z,28.74
2018-06-09T12:40:12.638Z,28.44
2018-06-09T12:41:12.709Z,28.44
2018-06-09T12:43:05.725Z,28.35
2018-06-09T12:44:05.791Z,28.47
2018-06-09T12:45:58.810Z,28.38
2018-06-09T12:46:58.871Z,28.35
2018-06-09T12:48:51.948Z,28.45
2018-06-09T12:49:51.946Z,28.57
2018-06-09T12:51:44.958Z,28.62
2018-06-09T12:52:45.023Z,28.26
2018-06-09T12:54:38.031Z,28.14
2018-06-09T12:55:38.098Z,28.12
2018-06-09T12:57:31.113Z,28.08
2018-06-09T12:58:31.173Z,28.27
2018-06-09T13:00:24.181Z,28.22
2018-06-09T13:01:24.252Z,28.27
2018-06-09T13:03:17.263Z,28.23
2018-06-09T13:04:17.327Z,28.19
2018-06-09T13:06:10.337Z,28.25
2018-06-09T13:07:10.403Z,28.26
2018-06-09T13:09:03.409Z,28.44
2018-06-09T13:10:03.474Z,28.39
2018-06-09T13:11:56.488Z,28.44
2018-06-09T13:12:56.552Z,28.44
2018-06-09T13:14:49.558Z,28.38
2018-06-09T13:15:49.625Z,28.37
2018-06-09T13:17:42.642Z,28.47
2018-06-09T13:18:42.707Z,28.39
2018-06-09T13:20:35.716Z,28.48
2018-06-09T13:21:35.782Z,28.48
2018-06-09T13:23:28.790Z,28.47
2018-06-09T13:24:28.857Z,28.38
2018-06-09T13:26:21.870Z,28.37
2018-06-09T13:27:21.932Z,28.44
2018-06-09T13:29:14.950Z,28.42
2018-06-09T13:30:15.024Z,28.47
2018-06-09T13:32:08.023Z,28.45
2018-06-09T13:33:08.083Z,28.56
2018-06-09T13:35:01.086Z,28.44
2018-06-09T13:36:01.159Z,28.45
2018-06-09T13:37:54.167Z,28.63
2018-06-09T13:38:54.376Z,28.64
2018-06-09T13:40:47.234Z,28.67
2018-06-09T13:41:47.310Z,28.52
2018-06-09T13:43:40.313Z,28.62
2018-06-09T13:44:40.440Z,28.66
2018-06-09T13:46:33.392Z,28.62
2018-06-09T13:47:33.453Z,28.72
2018-06-09T13:49:26.462Z,28.81
2018-06-09T13:50:26.530Z,28.91
2018-06-09T13:52:19.542Z,28.86
2018-06-09T13:53:19.606Z,28.85
2018-06-09T13:55:12.615Z,28.85
2018-06-09T13:56:12.683Z,28.85
2018-06-09T13:58:05.692Z,28.82
2018-06-09T13:59:05.756Z,28.74
2018-06-09T14:00:58.763Z,28.67
2018-06-09T14:01:58.833Z,28.66
2018-06-09T14:03:51.842Z,28.62
2018-06-09T14:04:51.906Z,28.70
2018-06-09T14:06:44.928Z,28.72
2018-06-09T14:07:44.989Z,28.79
2018-06-09T14:09:37.996Z,28.85
2018-06-09T14:10:38.065Z,28.86
2018-06-09T14:12:31.078Z,28.86
2018-06-09T14:13:31.144Z,28.89
2018-06-09T14:15:24.145Z,28.89
2018-06-09T14:16:24.215Z,28.97
2018-06-09T14:18:17.225Z,29.01
2018-06-09T14:19:17.289Z,28.89
2018-06-09T14:21:10.296Z,28.82
2018-06-09T14:22:10.363Z,28.82
2018-06-09T14:24:03.376Z,28.84
2018-06-09T14:25:03.439Z,28.85
2018-06-09T14:26:56.456Z,28.98
2018-06-09T14:27:56.602Z,29.02
2018-06-09T14:29:49.523Z,28.97
2018-06-09T14:30:49.635Z,29.01
2018-06-09T14:32:42.637Z,29.02
2018-06-09T14:33:42.667Z,29.01
2018-06-09T14:35:35.670Z,29.01
2018-06-09T14:36:35.739Z,29.07
2018-06-09T14:38:28.746Z,29.02
2018-06-09T14:39:28.812Z,29.05
2018-06-09T14:41:21.819Z,29.01
2018-06-09T14:42:21.885Z,29.02
2018-06-09T14:44:14.908Z,28.89
2018-06-09T14:45:14.962Z,29.01
2018-06-09T14:47:07.963Z,28.96
2018-06-09T14:48:08.035Z,28.86
2018-06-09T14:50:01.051Z,28.70
2018-06-09T14:51:01.115Z,28.85
2018-06-09T14:52:54.129Z,28.86
2018-06-09T14:53:54.273Z,28.85
2018-06-09T14:55:47.202Z,28.89
2018-06-09T14:56:47.272Z,28.93
2018-06-09T14:58:40.286Z,28.85
2018-06-09T14:59:40.348Z,28.85
2018-06-09T15:01:33.356Z,28.81
2018-06-09T15:02:33.481Z,28.78
2018-06-09T15:04:26.439Z,28.64
2018-06-09T15:05:26.502Z,28.64
2018-06-09T15:07:19.505Z,28.63
2018-06-09T15:08:19.574Z,28.59
2018-06-09T15:10:12.588Z,28.59
2018-06-09T15:11:12.688Z,28.63
2018-06-09T15:13:05.660Z,28.57
2018-06-09T15:14:05.726Z,28.62
2018-06-09T15:15:58.732Z,28.64
2018-06-09T15:16:58.806Z,28.62
2018-06-09T15:18:51.819Z,28.60
2018-06-09T15:19:51.880Z,28.57
2018-06-09T15:21:45.395Z,28.64
2018-06-09T15:22:45.506Z,28.76
2018-06-09T15:24:38.479Z,28.84
2018-06-09T15:25:38.546Z,28.81
2018-06-09T15:27:31.549Z,28.85
2018-06-09T15:28:31.618Z,28.81
2018-06-09T15:30:24.631Z,28.93
2018-06-09T15:31:24.695Z,28.94
2018-06-09T15:33:17.702Z,29.01
2018-06-09T15:34:17.770Z,29.01
2018-06-09T15:36:10.779Z,28.98
2018-06-09T15:37:10.844Z,28.96
2018-06-09T15:39:03.909Z,28.86
2018-06-09T15:40:03.921Z,28.91
2018-06-09T15:41:56.926Z,28.89
2018-06-09T15:42:56.996Z,28.94
2018-06-09T15:44:50.011Z,28.91
2018-06-09T15:45:50.070Z,28.88
2018-06-09T15:47:43.077Z,28.94
2018-06-09T15:48:43.148Z,28.94
2018-06-09T15:50:36.160Z,29.10
2018-06-09T15:51:36.221Z,29.08
2018-06-09T15:53:29.236Z,29.02
2018-06-09T15:54:29.333Z,29.01
2018-06-09T15:56:22.303Z,29.12
2018-06-09T15:57:22.374Z,29.14
2018-06-09T15:59:15.391Z,29.07
2018-06-09T16:00:15.455Z,29.08
2018-06-09T16:02:08.462Z,29.05
2018-06-09T16:03:08.528Z,28.98
2018-06-09T16:05:01.541Z,28.84
2018-06-09T16:06:01.606Z,28.85
2018-06-09T16:07:54.612Z,28.86
2018-06-09T16:08:54.705Z,28.82
2018-06-09T16:10:47.689Z,28.78
2018-06-09T16:11:47.769Z,28.86
2018-06-09T16:13:40.765Z,28.69
2018-06-09T16:14:40.830Z,28.57
2018-06-09T16:16:34.341Z,28.64
2018-06-09T16:17:34.410Z,28.64
2018-06-09T16:19:27.422Z,28.66
2018-06-09T16:20:27.484Z,28.60
2018-06-09T16:22:20.485Z,28.67
2018-06-09T16:23:20.557Z,28.63
2018-06-09T16:25:13.571Z,28.59
2018-06-09T16:26:13.634Z,28.60
2018-06-09T16:28:06.648Z,28.62
2018-06-09T16:29:06.724Z,28.62
2018-06-09T16:30:59.712Z,28.49
2018-06-09T16:31:59.788Z,28.62
2018-06-09T16:33:52.805Z,28.63
2018-06-09T16:34:52.874Z,28.62
2018-06-09T16:36:45.897Z,28.62
2018-06-09T16:37:45.946Z,28.60
2018-06-09T16:39:38.965Z,28.62
2018-06-09T16:40:39.019Z,28.51
2018-06-09T16:42:32.039Z,28.62
2018-06-09T16:43:32.112Z,28.60
2018-06-09T16:45:25.112Z,28.54
2018-06-09T16:46:25.179Z,28.66
2018-06-09T16:48:18.189Z,28.60
2018-06-09T16:49:18.251Z,28.63
2018-06-09T16:51:11.253Z,28.60
2018-06-09T16:52:11.329Z,28.63
2018-06-09T16:54:04.333Z,28.67
2018-06-09T16:55:04.398Z,28.54
2018-06-09T16:56:57.418Z,28.62
2018-06-09T16:57:57.479Z,28.63
2018-06-09T16:59:50.496Z,28.64
2018-06-09T17:00:50.560Z,28.62
2018-06-09T17:02:43.562Z,28.51
2018-06-09T17:03:43.634Z,28.47
2018-06-09T17:05:36.646Z,28.41
2018-06-09T17:06:36.703Z,28.44
2018-06-09T17:08:29.715Z,28.35
2018-06-09T17:09:29.778Z,28.30
2018-06-09T17:11:22.784Z,28.30
2018-06-09T17:12:22.851Z,28.35
2018-06-09T17:14:15.869Z,28.22
2018-06-09T17:15:15.934Z,28.30
2018-06-09T17:17:09.444Z,28.29
2018-06-09T17:18:09.513Z,28.33
2018-06-09T17:20:02.532Z,28.27
2018-06-09T17:21:02.596Z,28.25
2018-06-09T17:22:55.602Z,28.29
2018-06-09T17:23:55.677Z,28.23
2018-06-09T17:25:48.685Z,28.29
2018-06-09T17:26:48.746Z,28.26
2018-06-09T17:28:41.764Z,28.23
2018-06-09T17:29:41.827Z,28.15
2018-06-09T17:31:34.843Z,28.15
2018-06-09T17:32:34.910Z,28.15
2018-06-09T17:34:27.933Z,28.20
2018-06-09T17:35:27.997Z,28.12
2018-06-09T17:37:20.999Z,28.14
2018-06-09T17:38:21.059Z,28.17
2018-06-09T17:40:14.079Z,28.20
2018-06-09T17:41:14.147Z,28.10
2018-06-09T17:43:07.168Z,28.11
2018-06-09T17:44:07.336Z,28.15
2018-06-09T17:46:00.782Z,28.12
2018-06-09T17:47:00.813Z,28.02
2018-06-09T17:48:53.816Z,28.05
2018-06-09T17:49:53.887Z,28.00
2018-06-09T17:51:46.901Z,28.01
2018-06-09T17:52:46.967Z,27.96
2018-06-09T17:54:39.970Z,27.87
2018-06-09T17:55:40.036Z,27.90
2018-06-09T17:57:33.058Z,27.80
2018-06-09T17:58:33.113Z,27.90
2018-06-09T18:00:26.123Z,27.85
2018-06-09T18:01:26.191Z,27.78
2018-06-09T18:03:19.189Z,27.74
2018-06-09T18:04:19.257Z,27.68
2018-06-09T18:06:12.266Z,27.67
2018-06-09T18:07:12.329Z,27.64
2018-06-09T18:09:05.333Z,27.63
2018-06-09T18:10:05.409Z,27.52
2018-06-09T18:11:58.417Z,27.52
2018-06-09T18:12:58.481Z,27.59
2018-06-09T18:14:51.492Z,27.49
2018-06-09T18:15:51.556Z,27.51
2018-06-09T18:17:46.076Z,27.42
2018-06-09T18:18:46.136Z,27.45
2018-06-09T18:20:39.166Z,27.40
2018-06-09T18:21:39.209Z,27.42
2018-06-09T18:23:32.223Z,27.40
2018-06-09T18:24:32.288Z,27.30
2018-06-09T18:26:25.335Z,27.32
2018-06-09T18:27:25.382Z,27.27
2018-06-09T18:29:18.383Z,27.25
2018-06-09T18:30:18.445Z,27.21
2018-06-09T18:32:11.479Z,27.15
2018-06-09T18:33:11.525Z,27.17
2018-06-09T18:35:04.528Z,26.99